Time;durP1;ratioP1;P1;durP2;ratioP2;P2;SDS_P1;SDS_P2;PMS_P1;PMS_P2;Temp;Humidity;BMP_temperature;BMP_pressure;BME280_temperature;BME280_humidity;BME280_pressure;Samples;Min_cycle;Max_cycle;Signal;HPM_P1;HPM_P2
2024/03/26 00:01:31;;;;;;;12.35;2.13;;;;;;;2.18;55.50;100197.84;5033882;28;20075;-75
2024/03/26 00:03:57;;;;;;;6.57;1.42;;;;;;;2.11;55.70;100198.84;5025013;28;20127;-72
2024/03/26 00:06:23;;;;;;;4.55;1.38;;;;;;;2.13;55.75;100194.47;5036225;28;20078;-75
2024/03/26 00:08:49;;;;;;;4.88;1.55;;;;;;;2.13;55.68;100195.34;5027571;28;20033;-74
2024/03/26 00:11:14;;;;;;;4.75;2.03;;;;;;;2.06;55.67;100192.88;5033499;28;20436;-73
2024/03/26 00:13:40;;;;;;;3.70;1.63;;;;;;;2.07;56.27;100192.03;5029296;28;20102;-73
2024/03/26 00:16:05;;;;;;;6.43;1.83;;;;;;;2.10;55.92;100192.81;5033487;28;20086;-74
2024/03/26 00:18:31;;;;;;;8.55;2.13;;;;;;;2.14;55.81;100189.31;5019573;28;20029;-75
2024/03/26 00:20:56;;;;;;;3.88;1.52;;;;;;;2.15;55.80;100187.56;5026913;28;20052;-74
2024/03/26 00:23:22;;;;;;;7.65;2.03;;;;;;;2.15;55.71;100177.25;5037397;28;20139;-76
2024/03/26 00:25:48;;;;;;;5.35;1.35;;;;;;;2.13;55.83;100185.03;5027775;28;20051;-74
2024/03/26 00:28:15;;;;;;;5.70;1.45;;;;;;;2.10;55.73;100167.03;5034460;28;21162;-71
2024/03/26 00:30:40;;;;;;;5.78;1.10;;;;;;;2.18;55.56;100163.50;5028241;28;20418;-70
2024/03/26 00:33:06;;;;;;;8.50;1.83;;;;;;;2.10;55.57;100166.19;5032147;28;20040;-69
2024/03/26 00:35:36;;;;;;;9.27;1.63;;;;;;;2.02;56.02;100162.88;5033016;28;20025;-69
2024/03/26 00:38:05;;;;;;;5.25;0.98;;;;;;;2.01;55.88;100161.19;5032149;28;20094;-70
2024/03/26 00:40:30;;;;;;;5.93;1.23;;;;;;;1.97;56.37;100165.53;5032786;28;20067;-71
2024/03/26 00:42:56;;;;;;;9.25;1.95;;;;;;;2.04;56.27;100155.97;5032096;28;20850;-71
2024/03/26 00:45:21;;;;;;;5.72;1.85;;;;;;;1.98;56.27;100149.19;5028972;28;20830;-70
2024/03/26 00:47:47;;;;;;;8.13;2.03;;;;;;;1.88;56.19;100156.19;5029564;28;20055;-70
2024/03/26 00:50:13;;;;;;;3.83;1.40;;;;;;;1.83;56.32;100159.75;5029783;28;20032;-69
2024/03/26 00:52:38;;;;;;;6.15;1.80;;;;;;;1.79;56.55;100153.75;5028062;28;20044;-69
2024/03/26 00:55:04;;;;;;;5.95;1.63;;;;;;;1.79;56.50;100160.66;5030514;28;20028;-69
2024/03/26 00:57:29;;;;;;;4.55;1.73;;;;;;;1.75;56.76;100149.53;5034345;28;20028;-69
2024/03/26 00:59:55;;;;;;;7.68;2.00;;;;;;;1.68;56.45;100153.06;5028392;28;20596;-69
2024/03/26 01:02:20;;;;;;;3.55;1.40;;;;;;;1.75;56.49;100148.69;5029219;28;20048;-69
2024/03/26 01:04:46;;;;;;;5.25;1.75;;;;;;;1.68;57.22;100150.50;5029546;28;20044;-69
2024/03/26 01:07:11;;;;;;;7.75;1.88;;;;;;;1.65;57.17;100145.41;5029530;28;20123;-69
2024/03/26 01:09:36;;;;;;;4.13;1.35;;;;;;;1.68;57.63;100142.78;5035999;28;20536;-70
2024/03/26 01:12:02;;;;;;;6.40;1.67;;;;;;;1.75;57.01;100138.38;5021786;28;20745;-71
2024/03/26 01:14:27;;;;;;;8.20;1.83;;;;;;;1.72;57.23;100142.69;5036380;28;20067;-69
2024/03/26 01:16:53;;;;;;;11.32;1.58;;;;;;;1.71;57.18;100133.28;5025294;28;20048;-70
2024/03/26 01:19:19;;;;;;;7.18;2.25;;;;;;;1.70;57.30;100131.56;5039440;28;20020;-70
2024/03/26 01:21:44;;;;;;;5.88;1.45;;;;;;;1.69;57.16;100132.47;5023809;28;20061;-71
2024/03/26 01:24:10;;;;;;;5.78;1.48;;;;;;;1.64;57.63;100129.09;5029285;28;20033;-69
2024/03/26 01:26:35;;;;;;;14.65;2.25;;;;;;;1.62;57.27;100133.44;5034729;28;20044;-69
2024/03/26 01:29:01;;;;;;;6.93;1.40;;;;;;;1.59;57.37;100128.31;5025653;28;20039;-69
2024/03/26 01:31:27;;;;;;;7.15;1.73;;;;;;;1.60;57.40;100131.75;5039971;28;20545;-72
2024/03/26 01:33:52;;;;;;;5.97;1.52;;;;;;;1.60;57.55;100116.28;5026476;28;20037;-75
2024/03/26 01:36:18;;;;;;;3.88;1.55;;;;;;;1.63;57.33;100124.81;5032419;28;20054;-76
2024/03/26 01:38:43;;;;;;;5.93;1.83;;;;;;;1.66;56.76;100119.63;5025340;28;20040;-76
2024/03/26 01:41:08;;;;;;;11.77;1.83;;;;;;;1.64;56.75;100121.38;5032475;28;20044;-75
2024/03/26 01:43:34;;;;;;;4.45;1.90;;;;;;;1.57;57.00;100118.91;5031010;28;20102;-75
2024/03/26 01:46:00;;;;;;;6.95;1.77;;;;;;;1.57;57.18;100121.47;5027463;28;21848;-75
2024/03/26 01:48:25;;;;;;;9.13;2.60;;;;;;;1.48;57.31;100109.56;5026442;28;20052;-76
2024/03/26 01:50:51;;;;;;;5.55;1.90;;;;;;;1.50;57.13;100115.56;5026713;28;20032;-75
2024/03/26 01:53:17;;;;;;;4.68;2.30;;;;;;;1.55;56.62;100115.50;5034897;28;20078;-75
2024/03/26 01:55:43;;;;;;;4.70;1.83;;;;;;;1.55;56.33;100111.22;5008621;28;20029;-75
2024/03/26 01:58:09;;;;;;;5.57;2.40;;;;;;;1.57;56.32;100108.59;5038260;28;20422;-75
2024/03/26 02:00:36;;;;;;;5.22;2.22;;;;;;;1.64;56.10;100115.34;5015452;28;20888;-75
2024/03/26 02:03:01;;;;;;;8.45;1.85;;;;;;;1.46;55.80;100108.75;5028699;28;21538;-74
2024/03/26 02:05:27;;;;;;;6.72;2.42;;;;;;;1.55;56.26;100105.19;5011935;28;20073;-73
2024/03/26 02:07:52;;;;;;;6.22;2.08;;;;;;;1.57;55.89;100103.44;5016091;28;20059;-75
2024/03/26 02:10:19;;;;;;;9.63;1.83;;;;;;;1.54;55.70;100100.94;5016000;28;20037;-75
2024/03/26 02:12:44;;;;;;;7.57;1.83;;;;;;;1.44;55.91;100095.91;5036662;28;20048;-73
2024/03/26 02:15:10;;;;;;;8.57;3.50;;;;;;;1.47;56.22;100095.84;5029536;28;20025;-75
2024/03/26 02:17:35;;;;;;;4.05;2.28;;;;;;;1.46;55.93;100081.28;5037805;28;20242;-74
2024/03/26 02:20:01;;;;;;;7.03;2.58;;;;;;;1.56;55.83;100084.56;5036175;28;20123;-76
2024/03/26 02:22:26;;;;;;;9.77;3.20;;;;;;;1.55;55.51;100079.44;5028135;28;20084;-74
2024/03/26 02:24:52;;;;;;;3.63;1.95;;;;;;;1.45;55.74;100069.28;5028062;28;20145;-73
2024/03/26 02:27:17;;;;;;;7.80;2.17;;;;;;;1.46;55.70;100081.28;5026087;28;20076;-74
2024/03/26 02:29:43;;;;;;;15.57;2.78;;;;;;;1.44;55.61;100074.44;5032889;28;20036;-71
2024/03/26 02:32:12;;;;;;;11.57;2.47;;;;;;;1.40;55.51;100071.06;5032791;28;20037;-74
2024/03/26 02:34:38;;;;;;;7.82;1.90;;;;;;;1.32;55.98;100067.72;5039754;28;20032;-75
2024/03/26 02:37:03;;;;;;;10.75;2.58;;;;;;;1.42;55.17;100059.03;5025526;28;20044;-74
2024/03/26 02:39:28;;;;;;;8.88;2.65;;;;;;;1.29;55.31;100054.91;5028361;28;20151;-74
2024/03/26 02:41:54;;;;;;;4.40;2.00;;;;;;;1.39;54.93;100055.59;5025333;28;20048;-73
2024/03/26 02:44:20;;;;;;;7.47;2.42;;;;;;;1.36;54.61;100051.38;5029720;28;20031;-74
2024/03/26 02:46:45;;;;;;;6.78;2.50;;;;;;;1.27;54.86;100048.94;5018061;28;20036;-75
2024/03/26 02:49:11;;;;;;;4.63;2.30;;;;;;;1.25;55.04;100051.50;5032840;28;20048;-74
2024/03/26 02:51:36;;;;;;;6.85;1.77;;;;;;;1.27;54.69;100043.78;5018967;28;20056;-74
2024/03/26 02:54:02;;;;;;;10.00;2.78;;;;;;;1.22;54.54;100046.41;5027686;28;20447;-75
2024/03/26 02:56:28;;;;;;;7.65;2.10;;;;;;;1.17;55.24;100048.22;5032310;28;20062;-74
2024/03/26 02:58:54;;;;;;;5.55;2.70;;;;;;;1.12;55.34;100042.25;5022357;28;20401;-75
2024/03/26 03:01:19;;;;;;;9.75;2.13;;;;;;;1.08;55.41;100038.91;5032152;28;20020;-76
2024/03/26 03:03:45;;;;;;;16.95;2.45;;;;;;;1.07;55.61;100037.19;5028540;28;20090;-75
2024/03/26 03:06:11;;;;;;;5.85;2.08;;;;;;;1.10;55.00;100039.72;5027616;28;20064;-76
2024/03/26 03:08:37;;;;;;;6.45;2.42;;;;;;;1.05;54.88;100032.94;5026415;28;20049;-75
2024/03/26 03:11:06;;;;;;;5.95;2.28;;;;;;;0.88;55.59;100041.75;5044337;28;20032;-75
2024/03/26 03:13:31;;;;;;;8.10;2.72;;;;;;;0.99;55.14;100033.88;5029505;28;20033;-76
2024/03/26 03:15:57;;;;;;;6.80;2.53;;;;;;;0.96;54.79;100033.06;5030618;28;20605;-76
2024/03/26 03:18:23;;;;;;;5.07;1.88;;;;;;;0.92;55.15;100031.41;5037724;28;20037;-72
2024/03/26 03:20:48;;;;;;;5.93;2.63;;;;;;;0.86;55.03;100022.91;5028244;28;20032;-70
2024/03/26 03:23:14;;;;;;;6.85;1.73;;;;;;;0.94;54.87;100022.78;5020380;28;20074;-70
2024/03/26 03:25:42;;;;;;;2.75;1.60;;;;;;;0.97;54.48;100024.47;5027018;28;20041;-70
2024/03/26 03:28:07;;;;;;;7.28;2.83;;;;;;;0.99;54.35;100023.59;5026565;28;23615;-72
2024/03/26 03:30:34;;;;;;;4.55;2.28;;;;;;;1.02;54.17;100017.56;5027233;28;20031;-71
2024/03/26 03:33:00;;;;;;;7.07;1.80;;;;;;;0.98;54.36;100011.59;5026767;28;20102;-73
2024/03/26 03:35:26;;;;;;;3.38;1.85;;;;;;;1.00;53.87;100004.69;5031254;28;20025;-71
2024/03/26 03:37:51;;;;;;;13.73;2.90;;;;;;;0.90;54.50;100004.00;5029167;28;20068;-74
2024/03/26 03:40:17;;;;;;;9.05;2.60;;;;;;;0.99;54.10;100000.44;5031742;28;20251;-73
2024/03/26 03:42:43;;;;;;;3.65;2.20;;;;;;;1.10;53.45;99995.09;5041207;28;20037;-73
2024/03/26 03:45:09;;;;;;;7.63;2.22;;;;;;;1.05;53.23;99995.19;5038784;28;20040;-71
2024/03/26 03:47:34;;;;;;;8.23;2.65;;;;;;;1.07;53.40;99993.44;5014307;28;20043;-68
2024/03/26 03:50:00;;;;;;;4.53;2.20;;;;;;;1.07;53.51;99985.72;5050600;28;20090;-72
2024/03/26 03:52:25;;;;;;;7.90;2.72;;;;;;;1.05;53.31;99982.31;5028249;28;20037;-68
2024/03/26 03:54:52;;;;;;;5.88;2.22;;;;;;;1.03;53.49;99984.06;5031430;28;20032;-69
2024/03/26 03:57:18;;;;;;;4.07;2.55;;;;;;;1.05;53.40;99982.31;5033782;28;20040;-75
2024/03/26 03:59:44;;;;;;;9.05;2.08;;;;;;;1.05;53.26;99976.31;5041363;28;20040;-75
2024/03/26 04:02:09;;;;;;;6.90;2.88;;;;;;;1.04;53.02;99964.34;5029304;28;21237;-75
2024/03/26 04:04:35;;;;;;;7.35;2.40;;;;;;;1.01;53.19;99969.50;5019008;28;20043;-72
2024/03/26 04:07:00;;;;;;;3.55;2.28;;;;;;;1.07;52.81;99965.13;5029612;28;20025;-73
2024/03/26 04:09:26;;;;;;;4.63;2.03;;;;;;;1.03;52.70;99963.47;5034494;28;20060;-76
2024/03/26 04:11:51;;;;;;;7.53;2.15;;;;;;;1.10;52.59;99964.22;5035146;28;20044;-77
2024/03/26 04:14:17;;;;;;;9.38;2.70;;;;;;;1.05;52.44;99958.31;5031360;28;20040;-72
2024/03/26 04:16:46;;;;;;;9.50;2.30;;;;;;;1.17;52.37;99957.25;5033037;28;20557;-73
2024/03/26 04:19:12;;;;;;;6.28;2.40;;;;;;;0.99;52.41;99959.25;5027975;28;20619;-73
2024/03/26 04:21:38;;;;;;;3.58;2.05;;;;;;;1.21;51.96;99957.19;5033780;28;20047;-71
2024/03/26 04:24:03;;;;;;;7.50;2.00;;;;;;;1.19;51.92;99948.63;5027899;28;20041;-71
2024/03/26 04:26:29;;;;;;;5.28;2.22;;;;;;;1.19;51.89;99952.94;5034511;28;20281;-74
2024/03/26 04:28:55;;;;;;;8.25;1.88;;;;;;;1.18;51.69;99948.69;5028527;28;20075;-74
2024/03/26 04:31:20;;;;;;;4.93;1.52;;;;;;;1.23;51.53;99946.88;5037046;28;20477;-73
2024/03/26 04:33:45;;;;;;;4.88;2.47;;;;;;;1.18;51.68;99940.94;5030679;28;20040;-75
2024/03/26 04:36:12;;;;;;;6.18;2.00;;;;;;;1.19;51.40;99938.34;5030426;28;20498;-75
2024/03/26 04:38:37;;;;;;;4.88;2.00;;;;;;;1.11;51.67;99935.91;5045396;28;20049;-71
2024/03/26 04:41:03;;;;;;;3.72;2.05;;;;;;;1.17;51.21;99934.09;5029398;28;20039;-71
2024/03/26 04:43:28;;;;;;;8.50;1.92;;;;;;;1.30;51.23;99930.44;5031550;28;20044;-73
2024/03/26 04:45:54;;;;;;;3.53;1.70;;;;;;;1.39;50.56;99925.13;5029553;28;20037;-71
2024/03/26 04:48:19;;;;;;;3.97;2.17;;;;;;;1.49;50.38;99921.56;5018764;28;20048;-71
2024/03/26 04:50:46;;;;;;;4.88;1.77;;;;;;;1.49;50.03;99916.41;5035522;28;20080;-70
2024/03/26 04:53:11;;;;;;;6.65;1.75;;;;;;;1.55;50.21;99909.44;5028737;28;20044;-69
2024/03/26 04:55:37;;;;;;;9.35;1.88;;;;;;;1.48;50.40;99913.84;5028860;28;20033;-70
2024/03/26 04:58:02;;;;;;;5.80;2.22;;;;;;;1.53;50.04;99909.50;5012612;28;20052;-72
2024/03/26 05:00:28;;;;;;;2.40;1.48;;;;;;;1.52;50.15;99908.63;5035871;28;20041;-70
2024/03/26 05:02:53;;;;;;;3.25;1.77;;;;;;;1.43;50.32;99906.22;5034121;28;20419;-72
2024/03/26 05:05:19;;;;;;;7.53;1.95;;;;;;;1.43;50.55;99895.91;5010585;28;20491;-72
2024/03/26 05:07:44;;;;;;;3.00;1.55;;;;;;;1.41;50.49;99892.50;5014213;28;20037;-72
2024/03/26 05:10:10;;;;;;;9.70;1.95;;;;;;;1.39;50.70;99894.22;5020954;28;20507;-78
2024/03/26 05:12:35;;;;;;;3.83;1.65;;;;;;;1.38;50.76;99886.56;5031398;28;20672;-76
2024/03/26 05:15:02;;;;;;;5.80;1.60;;;;;;;1.38;50.74;99882.25;5013553;28;20028;-73
2024/03/26 05:17:27;;;;;;;5.18;2.08;;;;;;;1.45;50.26;99878.72;5044811;28;20036;-73
2024/03/26 05:19:52;;;;;;;12.20;1.60;;;;;;;1.36;50.75;99884.00;5033396;28;20029;-72
2024/03/26 05:22:18;;;;;;;5.38;1.65;;;;;;;1.41;50.36;99884.78;5025539;28;20068;-72
2024/03/26 05:24:44;;;;;;;5.38;1.77;;;;;;;1.45;50.67;99870.16;5033261;28;20126;-70
2024/03/26 05:27:09;;;;;;;7.28;1.75;;;;;;;1.34;50.98;99875.44;5025475;28;20279;-72
2024/03/26 05:29:36;;;;;;;4.03;1.38;;;;;;;1.43;50.83;99866.75;5033557;28;20044;-75
2024/03/26 05:32:03;;;;;;;5.78;1.60;;;;;;;1.34;51.04;99860.00;5021592;28;20040;-73
2024/03/26 05:34:31;;;;;;;9.10;2.53;;;;;;;1.55;50.26;99857.94;5033961;28;20151;-72
2024/03/26 05:36:57;;;;;;;4.28;1.52;;;;;;;1.52;50.48;99851.13;5019690;28;20066;-72
2024/03/26 05:39:23;;;;;;;4.82;1.45;;;;;;;1.61;50.37;99848.38;5059665;28;20442;-74
2024/03/26 05:41:50;;;;;;;6.15;1.70;;;;;;;1.59;50.36;99851.84;5033402;28;20119;-74
2024/03/26 05:44:15;;;;;;;4.35;1.48;;;;;;;1.49;50.41;99849.47;5034037;28;20399;-77
2024/03/26 05:46:41;;;;;;;14.13;2.13;;;;;;;1.57;50.44;99841.56;5016564;28;20162;-72
2024/03/26 05:49:07;;;;;;;2.80;1.30;;;;;;;1.55;50.37;99845.06;5027468;28;20040;-74
2024/03/26 05:51:32;;;;;;;3.15;1.42;;;;;;;1.70;49.98;99849.91;5030296;28;20284;-74
2024/03/26 05:53:58;;;;;;;5.60;2.28;;;;;;;1.66;50.33;99845.69;5018807;28;20037;-73
2024/03/26 05:56:23;;;;;;;6.70;2.05;;;;;;;1.58;50.09;99838.13;5032144;28;20090;-75
2024/03/26 05:58:49;;;;;;;7.45;1.50;;;;;;;1.74;50.20;99828.38;5029590;28;20045;-73
2024/03/26 06:01:15;;;;;;;9.93;1.48;;;;;;;1.75;49.62;99818.91;5028265;28;20028;-73
2024/03/26 06:03:41;;;;;;;4.05;1.67;;;;;;;1.75;49.74;99832.63;5028451;28;20485;-74
2024/03/26 06:06:06;;;;;;;7.00;2.15;;;;;;;1.70;50.01;99825.00;5028199;28;20111;-75
2024/03/26 06:08:32;;;;;;;6.50;1.77;;;;;;;1.81;49.48;99817.06;5030668;28;20048;-76
2024/03/26 06:10:57;;;;;;;3.20;1.48;;;;;;;1.97;50.01;99815.00;5020038;28;20052;-76
2024/03/26 06:13:23;;;;;;;3.00;1.25;;;;;;;2.02;49.45;99818.34;5026159;28;20067;-75
2024/03/26 06:15:48;;;;;;;3.58;1.75;;;;;;;2.18;48.49;99798.25;5028695;28;20076;-73
2024/03/26 06:18:14;;;;;;;2.90;1.38;;;;;;;2.71;47.98;99809.03;5027548;28;20071;-73
2024/03/26 06:20:40;;;;;;;9.30;2.45;;;;;;;2.76;47.26;99803.75;5026915;28;20037;-73
2024/03/26 06:23:05;;;;;;;9.30;1.83;;;;;;;3.03;46.88;99807.38;5026446;28;20068;-75
2024/03/26 06:25:31;;;;;;;3.58;1.27;;;;;;;3.42;46.12;99807.22;5029664;28;20029;-73
2024/03/26 06:27:56;;;;;;;2.65;1.13;;;;;;;4.25;44.20;99803.97;5030887;28;21205;-73
2024/03/26 06:30:22;;;;;;;2.80;1.17;;;;;;;4.73;43.31;99800.72;5025352;28;20036;-73
2024/03/26 06:32:51;;;;;;;6.97;1.65;;;;;;;5.32;42.23;99797.03;5029086;28;20577;-74
2024/03/26 06:35:16;;;;;;;9.98;1.90;;;;;;;6.09;40.15;99792.47;5015611;28;20052;-71
2024/03/26 06:37:42;;;;;;;6.68;1.58;;;;;;;6.57;39.59;99799.22;5036275;28;20152;-73
2024/03/26 06:40:09;;;;;;;8.75;2.05;;;;;;;6.64;39.64;99794.63;5029878;28;20021;-71
2024/03/26 06:42:34;;;;;;;4.22;1.70;;;;;;;7.15;38.65;99797.72;5029824;28;20082;-72
2024/03/26 06:45:00;;;;;;;6.10;1.17;;;;;;;6.47;38.73;99797.94;5031144;28;20494;-72
2024/03/26 06:47:27;;;;;;;5.97;1.70;;;;;;;5.90;39.50;99792.31;5024924;28;20136;-74
2024/03/26 06:49:53;;;;;;;8.60;1.73;;;;;;;5.69;40.29;99787.94;5030755;28;20048;-72
2024/03/26 06:52:18;;;;;;;4.53;1.42;;;;;;;5.65;40.92;99790.63;5021845;28;20044;-72
2024/03/26 06:54:44;;;;;;;6.82;1.70;;;;;;;6.08;39.68;99781.25;5025832;28;20045;-73
2024/03/26 06:57:10;;;;;;;4.80;0.90;;;;;;;6.68;37.80;99784.06;5022702;28;20043;-72
2024/03/26 06:59:36;;;;;;;3.88;1.23;;;;;;;7.20;37.68;99783.63;5032503;28;20036;-72
2024/03/26 07:02:03;;;;;;;9.35;1.20;;;;;;;8.52;34.63;99782.78;5029010;28;20024;-71
2024/03/26 07:04:33;;;;;;;9.60;1.55;;;;;;;8.51;34.64;99781.09;5030861;28;20085;-71
2024/03/26 07:07:01;;;;;;;3.85;0.90;;;;;;;8.57;34.23;99775.59;5024172;28;20033;-70
2024/03/26 07:09:26;;;;;;;5.70;0.85;;;;;;;8.69;34.35;99778.50;5029259;28;20032;-70
2024/03/26 07:11:52;;;;;;;3.75;1.60;;;;;;;8.91;33.41;99768.72;5034806;28;20035;-71
2024/03/26 07:14:19;;;;;;;5.05;1.58;;;;;;;8.73;33.91;99778.31;5026761;28;20032;-70
2024/03/26 07:16:48;;;;;;;7.55;1.38;;;;;;;8.75;33.39;99776.47;5034046;28;20107;-70
2024/03/26 07:19:13;;;;;;;4.45;1.08;;;;;;;9.08;33.22;99765.28;5031942;28;20048;-71
2024/03/26 07:21:40;;;;;;;9.60;2.58;;;;;;;8.68;33.16;99772.47;5035592;28;20037;-70
2024/03/26 07:24:08;;;;;;;5.35;1.33;;;;;;;8.34;33.67;99766.31;5029069;28;20394;-70
2024/03/26 07:26:34;;;;;;;2.33;0.60;;;;;;;8.81;33.89;99751.03;5035976;28;20056;-70
2024/03/26 07:29:00;;;;;;;3.40;1.17;;;;;;;9.03;33.22;99756.84;5036617;27;20036;-69
2024/03/26 07:31:25;;;;;;;2.42;0.80;;;;;;;9.21;32.54;99744.63;5031915;28;21160;-69
2024/03/26 07:33:51;;;;;;;4.63;1.00;;;;;;;9.39;32.90;99741.03;5030245;28;20508;-69
2024/03/26 07:36:16;;;;;;;5.32;1.85;;;;;;;9.30;32.23;99744.16;5029077;28;20032;-69
2024/03/26 07:38:43;;;;;;;4.18;1.30;;;;;;;9.58;32.31;99737.44;5032906;28;20547;-68
2024/03/26 07:41:11;;;;;;;4.80;1.80;;;;;;;9.46;32.94;99746.78;5026240;28;20055;-70
2024/03/26 07:43:39;;;;;;;5.97;1.52;;;;;;;9.70;32.57;99731.59;5030610;28;20183;-70
2024/03/26 07:46:05;;;;;;;6.55;1.33;;;;;;;8.59;34.21;99733.03;5035258;28;20881;-70
2024/03/26 07:48:31;;;;;;;6.22;1.25;;;;;;;8.20;34.54;99740.06;5014212;28;20066;-70
2024/03/26 07:50:57;;;;;;;5.00;1.30;;;;;;;7.60;35.89;99727.31;5027582;28;20132;-68
2024/03/26 07:53:22;;;;;;;6.30;1.10;;;;;;;7.09;36.04;99728.69;5027801;28;20070;-70
2024/03/26 07:55:49;;;;;;;6.55;1.10;;;;;;;6.73;37.42;99726.78;5044927;28;20079;-67
2024/03/26 07:58:14;;;;;;;5.25;1.48;;;;;;;7.00;37.07;99724.75;5027297;28;20875;-71
2024/03/26 08:00:43;;;;;;;4.05;1.48;;;;;;;7.57;36.32;99716.19;5031930;28;20037;-71
2024/03/26 08:03:09;;;;;;;4.38;1.27;;;;;;;7.94;36.47;99715.31;5033134;28;20041;-72
2024/03/26 08:05:34;;;;;;;4.00;1.02;;;;;;;9.32;33.73;99713.63;5037278;28;20087;-71
2024/03/26 08:08:00;;;;;;;4.38;1.50;;;;;;;8.71;34.47;99701.16;5029388;28;20580;-71
2024/03/26 08:10:25;;;;;;;4.28;1.13;;;;;;;9.17;34.59;99702.22;5025646;28;20554;-73
2024/03/26 08:12:53;;;;;;;3.95;0.70;;;;;;;9.28;33.67;99691.22;5032257;28;20139;-71
2024/03/26 08:15:20;;;;;;;3.33;1.45;;;;;;;8.92;34.59;99700.06;5028195;28;20115;-71
2024/03/26 08:17:45;;;;;;;2.85;0.70;;;;;;;8.70;34.49;99689.88;5031939;28;20499;-71
2024/03/26 08:20:11;;;;;;;5.93;1.42;;;;;;;8.53;35.07;99695.09;5026228;28;20043;-72
2024/03/26 08:22:37;;;;;;;3.95;1.65;;;;;;;7.90;35.85;99690.34;5029018;28;20602;-72
2024/03/26 08:25:05;;;;;;;9.90;2.25;;;;;;;8.00;36.09;99682.94;5030602;28;20047;-72
2024/03/26 08:27:31;;;;;;;4.65;0.75;;;;;;;8.23;36.18;99681.84;5021777;28;20056;-71
2024/03/26 08:29:56;;;;;;;2.85;1.27;;;;;;;7.37;37.23;99680.66;5026246;28;20096;-72
2024/03/26 08:32:22;;;;;;;6.35;1.20;;;;;;;7.52;36.72;99670.41;5023644;28;23080;-71
2024/03/26 08:34:47;;;;;;;5.82;1.02;;;;;;;8.00;36.38;99664.72;5031176;28;20730;-73
2024/03/26 08:37:13;;;;;;;5.05;1.00;;;;;;;8.33;35.85;99657.84;5033015;28;20052;-70
2024/03/26 08:39:39;;;;;;;4.03;1.20;;;;;;;8.94;34.96;99653.94;5032265;28;20036;-71
2024/03/26 08:42:05;;;;;;;4.47;1.17;;;;;;;9.53;33.74;99653.41;5026386;28;20040;-72
2024/03/26 08:44:30;;;;;;;1.83;0.98;;;;;;;9.18;34.07;99645.72;5025116;28;20524;-73
2024/03/26 08:46:55;;;;;;;2.38;1.35;;;;;;;9.69;33.21;99641.16;5021269;28;20041;-71
2024/03/26 08:49:21;;;;;;;4.57;1.10;;;;;;;9.45;33.23;99637.31;5023976;28;20116;-72
2024/03/26 08:51:46;;;;;;;3.17;0.93;;;;;;;9.64;33.14;99637.97;5031475;28;20071;-72
2024/03/26 08:54:12;;;;;;;2.42;0.85;;;;;;;8.86;33.93;99639.63;5023463;28;21087;-72
2024/03/26 08:56:38;;;;;;;5.60;1.10;;;;;;;9.07;34.10;99637.63;5036176;28;20033;-72
2024/03/26 08:59:03;;;;;;;4.65;1.30;;;;;;;8.89;34.61;99635.06;5024754;28;20068;-72
2024/03/26 09:01:29;;;;;;;3.13;0.73;;;;;;;8.42;34.60;99627.91;5030409;28;20124;-72
2024/03/26 09:03:55;;;;;;;2.55;0.98;;;;;;;8.42;35.00;99617.50;5013035;28;20040;-71
2024/03/26 09:06:20;;;;;;;5.10;1.00;;;;;;;8.19;35.59;99625.66;5020137;28;20025;-72
2024/03/26 09:08:46;;;;;;;2.30;1.10;;;;;;;7.88;35.70;99608.94;5028401;28;20090;-72
2024/03/26 09:11:12;;;;;;;7.22;1.27;;;;;;;7.81;35.61;99610.16;5012236;28;20036;-72
2024/03/26 09:13:41;;;;;;;4.55;1.48;;;;;;;8.38;35.80;99604.72;5014990;28;20589;-72
2024/03/26 09:16:10;;;;;;;5.13;0.73;;;;;;;8.48;34.98;99595.53;5024321;28;20029;-72
2024/03/26 09:18:36;;;;;;;2.03;0.95;;;;;;;8.91;34.50;99586.31;5020796;28;20055;-72
2024/03/26 09:21:02;;;;;;;2.75;1.10;;;;;;;8.32;35.18;99577.25;5023678;28;20525;-72
2024/03/26 09:23:28;;;;;;;9.50;1.33;;;;;;;8.59;34.53;99584.56;5007052;28;20044;-72
2024/03/26 09:25:53;;;;;;;5.25;0.77;;;;;;;8.98;34.67;99577.28;5025061;28;20067;-73
2024/03/26 09:28:20;;;;;;;8.63;1.40;;;;;;;8.47;34.84;99571.25;5008901;28;20115;-72
2024/03/26 09:30:50;;;;;;;3.40;0.88;;;;;;;8.69;34.53;99570.13;5029326;28;20480;-72
2024/03/26 09:33:18;;;;;;;2.25;0.85;;;;;;;8.32;34.67;99566.84;5025713;28;20363;-72
2024/03/26 09:35:47;;;;;;;3.17;0.90;;;;;;;8.87;34.75;99553.53;5020570;28;20118;-72
2024/03/26 09:38:12;;;;;;;2.30;1.45;;;;;;;9.15;33.70;99552.03;5023514;28;20131;-72
2024/03/26 09:40:38;;;;;;;6.13;2.72;;;;;;;9.30;33.91;99545.97;5009416;28;20039;-72
2024/03/26 09:43:08;;;;;;;2.22;0.85;;;;;;;9.90;33.09;99539.13;5003638;28;20065;-72
2024/03/26 09:45:34;;;;;;;3.83;1.60;;;;;;;9.63;33.35;99546.75;5021311;28;20025;-72
2024/03/26 09:48:01;;;;;;;3.40;1.02;;;;;;;8.84;34.19;99532.03;5031935;28;20113;-72
2024/03/26 09:50:31;;;;;;;5.60;0.95;;;;;;;8.60;34.50;99523.72;5023163;28;20028;-72
2024/03/26 09:52:57;;;;;;;3.80;1.10;;;;;;;8.58;34.91;99531.59;5008701;28;20040;-72
2024/03/26 09:55:30;;;;;;;1.60;0.70;;;;;;;9.26;34.43;99526.22;5021793;28;20072;-71
2024/03/26 09:57:55;;;;;;;2.15;0.82;;;;;;;9.27;33.93;99524.44;5026213;28;20032;-72
2024/03/26 10:00:21;;;;;;;2.67;1.15;;;;;;;9.50;35.07;99521.38;5020970;28;21262;-72
2024/03/26 10:02:47;;;;;;;2.85;0.73;;;;;;;9.67;33.97;99519.56;5030126;28;20045;-71
2024/03/26 10:05:16;;;;;;;1.55;0.80;;;;;;;10.39;33.12;99512.69;5006296;28;20382;-72
2024/03/26 10:07:45;;;;;;;1.92;0.47;;;;;;;10.67;32.96;99503.19;5009155;28;20705;-72
2024/03/26 10:10:11;;;;;;;3.10;1.08;;;;;;;10.42;33.54;99499.47;5019744;28;20029;-73
2024/03/26 10:12:41;;;;;;;2.20;0.90;;;;;;;9.99;33.42;99497.69;5022059;28;22345;-73
2024/03/26 10:15:07;;;;;;;1.77;0.45;;;;;;;9.90;31.71;99492.16;5029135;28;20040;-72
2024/03/26 10:17:36;;;;;;;1.55;0.40;;;;;;;10.01;31.91;99490.59;5023022;28;20097;-72
2024/03/26 10:20:05;;;;;;;5.15;1.25;;;;;;;9.69;30.68;99484.63;5033572;28;20028;-73
2024/03/26 10:22:30;;;;;;;3.92;1.15;;;;;;;9.27;30.98;99485.34;5021055;28;20037;-73
2024/03/26 10:24:56;;;;;;;2.72;1.00;;;;;;;9.15;32.06;99473.84;5021264;28;21000;-73
2024/03/26 10:27:29;;;;;;;1.83;0.60;;;;;;;9.79;32.13;99464.06;5003010;28;20127;-72
2024/03/26 10:29:55;;;;;;;2.60;0.82;;;;;;;10.23;31.54;99457.97;5032557;28;20036;-72
2024/03/26 10:32:23;;;;;;;2.65;1.10;;;;;;;9.97;31.08;99457.78;5021249;28;20040;-71
2024/03/26 10:34:57;;;;;;;2.53;1.00;;;;;;;9.86;31.49;99446.31;5009490;28;20487;-72
2024/03/26 10:37:30;;;;;;;1.52;0.55;;;;;;;9.66;31.29;99444.84;5027006;28;20033;-73
2024/03/26 10:40:24;;;;;;;2.88;0.70;;;;;;;9.96;32.12;99436.97;5024701;28;20061;-71
2024/03/26 10:42:53;;;;;;;2.53;1.00;;;;;;;10.36;31.61;99426.72;5015869;28;20078;-72
2024/03/26 10:45:19;;;;;;;2.38;0.70;;;;;;;10.47;30.55;99424.28;5021984;28;20036;-72
2024/03/26 10:47:49;;;;;;;8.77;1.00;;;;;;;10.85;31.00;99418.41;4994605;28;20127;-68
2024/03/26 10:50:15;;;;;;;6.05;1.23;;;;;;;10.78;30.37;99404.88;5015285;28;20056;-68
2024/03/26 10:52:46;;;;;;;2.22;0.90;;;;;;;10.87;30.09;99392.19;5021909;28;20734;-68
2024/03/26 10:55:12;;;;;;;2.75;1.08;;;;;;;9.73;31.89;99392.22;5040029;28;20140;-70
2024/03/26 10:57:40;;;;;;;3.75;0.98;;;;;;;9.68;32.16;99393.41;5005981;28;20109;-69
2024/03/26 11:00:10;;;;;;;1.75;0.90;;;;;;;9.50;32.92;99397.94;5028538;28;20123;-69
2024/03/26 11:02:37;;;;;;;1.98;1.00;;;;;;;9.56;32.63;99392.38;5019079;28;20033;-67
2024/03/26 11:05:04;;;;;;;3.20;0.80;;;;;;;9.52;32.53;99380.44;5027688;28;20133;-70
2024/03/26 11:07:36;;;;;;;1.67;0.60;;;;;;;9.36;32.91;99389.16;5015260;28;20762;-68
2024/03/26 11:10:16;;;;;;;3.67;1.35;;;;;;;10.04;32.53;99379.13;5029047;28;20028;-68
2024/03/26 11:12:42;;;;;;;3.17;1.17;;;;;;;10.06;32.45;99377.22;5015000;28;20684;-67
2024/03/26 11:15:14;;;;;;;3.17;1.08;;;;;;;10.19;32.16;99379.00;5025017;28;20347;-68
2024/03/26 11:18:00;;;;;;;3.28;0.88;;;;;;;10.81;30.77;99375.09;5010401;28;20049;-69
2024/03/26 11:20:28;;;;;;;3.65;0.75;;;;;;;10.86;31.56;99369.59;5017108;28;20675;-68
2024/03/26 11:22:57;;;;;;;5.57;1.13;;;;;;;11.47;31.60;99362.91;5025428;28;20037;-68
2024/03/26 11:25:27;;;;;;;2.90;0.88;;;;;;;10.84;30.79;99374.94;5028756;28;20078;-68
2024/03/26 11:27:54;;;;;;;1.48;0.70;;;;;;;11.27;31.72;99361.63;5028050;28;20132;-68
2024/03/26 11:30:20;;;;;;;4.68;0.70;;;;;;;11.50;29.59;99356.63;5022474;28;20052;-68
2024/03/26 11:32:46;;;;;;;3.22;0.77;;;;;;;11.48;29.62;99355.91;5022718;28;20048;-67
2024/03/26 11:35:17;;;;;;;1.60;0.70;;;;;;;11.40;30.13;99357.25;5026969;28;20059;-67